Time;durP1;ratioP1;P1;durP2;ratioP2;P2;SDS_P1;SDS_P2;PMS_P1;PMS_P2;Temp;Humidity;BMP_temperature;BMP_pressure;BME280_temperature;BME280_humidity;BME280_pressure;Samples;Min_cycle;Max_cycle;Signal;HPM_P1;HPM_P2
2022/06/27 00:00:13;;;;;;;;;;;;;;;16.97;95.17;99781.76;1678321;85;20110;-68
2022/06/27 00:02:42;;;;;;;;;;;;;;;16.93;95.43;99787.78;1677695;85;20145;-68
2022/06/27 00:05:12;;;;;;;;;;;;;;;16.89;95.51;99777.17;1676719;85;20121;-68
2022/06/27 00:07:39;;;;;;;;;;;;;;;16.84;95.69;99780.99;1677273;85;20113;-68
2022/06/27 00:10:09;;;;;;;;;;;;;;;16.80;95.76;99783.44;1678118;85;21515;-69
2022/06/27 00:12:40;;;;;;;;;;;;;;;16.78;96.08;99784.36;1678116;85;20128;-69
2022/06/27 00:15:11;;;;;;;;;;;;;;;16.72;96.24;99779.67;1671343;85;20117;-69
2022/06/27 00:17:39;;;;;;;;;;;;;;;16.68;96.52;99779.34;1677458;85;20152;-68
2022/06/27 00:20:06;;;;;;;;;;;;;;;16.63;96.81;99779.55;1678192;85;20122;-68
2022/06/27 00:22:34;;;;;;;;;;;;;;;16.60;97.19;99774.70;1678193;85;20104;-69
2022/06/27 00:25:05;;;;;;;;;;;;;;;16.57;97.58;99781.76;1670974;85;20077;-69
2022/06/27 00:27:36;;;;;;;;;;;;;;;16.56;97.77;99786.27;1677806;85;20089;-69
2022/06/27 00:30:03;;;;;;;;;;;;;;;16.54;98.11;99785.80;1678125;85;20100;-69
2022/06/27 00:32:34;;;;;;;;;;;;;;;16.53;98.17;99787.77;1677845;85;20446;-68
2022/06/27 00:35:02;;;;;;;;;;;;;;;16.48;98.38;99784.66;1674108;85;21285;-68
2022/06/27 00:37:34;;;;;;;;;;;;;;;16.46;98.62;99785.59;1670801;85;20121;-69
2022/06/27 00:40:06;;;;;;;;;;;;;;;16.44;98.90;99786.52;1678339;85;20121;-68
2022/06/27 00:42:37;;;;;;;;;;;;;;;16.43;99.07;99786.28;1671298;85;20125;-68
2022/06/27 00:45:08;;;;;;;;;;;;;;;16.43;99.28;99783.52;1648384;85;20121;-68
2022/06/27 00:47:35;;;;;;;;;;;;;;;16.44;99.52;99788.48;1677650;85;21213;-68
2022/06/27 00:50:11;;;;;;;;;;;;;;;16.47;99.66;99790.55;1648648;85;20186;-68
2022/06/27 00:52:40;;;;;;;;;;;;;;;16.51;99.63;99794.24;1648593;85;20105;-69
2022/06/27 00:55:10;;;;;;;;;;;;;;;16.56;99.56;99787.65;1630089;86;20094;-69
2022/06/27 00:57:45;;;;;;;;;;;;;;;16.61;99.46;99793.76;1689714;84;20204;-69
2022/06/27 01:00:22;;;;;;;;;;;;;;;16.67;99.34;99792.97;1678252;85;20109;-69
2022/06/27 01:02:51;;;;;;;;;;;;;;;16.74;99.08;99787.06;1688777;85;20120;-69
2022/06/27 01:05:15;;;;;;;;;;;;;;;16.80;98.72;99787.59;1688813;85;20072;-69
2022/06/27 01:07:44;;;;;;;;;;;;;;;16.87;98.40;99787.80;1689489;85;20100;-69
2022/06/27 01:10:18;;;;;;;;;;;;;;;16.91;98.11;99789.29;1689844;85;20084;-69
2022/06/27 01:12:47;;;;;;;;;;;;;;;16.95;97.91;99791.59;1688595;84;21748;-69
2022/06/27 01:15:23;;;;;;;;;;;;;;;16.99;97.70;99793.89;1689920;83;20100;-69
2022/06/27 01:17:53;;;;;;;;;;;;;;;17.04;97.58;99796.41;1688343;85;20092;-69
2022/06/27 01:20:24;;;;;;;;;;;;;;;17.07;97.30;99794.31;1689653;85;20542;-68
2022/06/27 01:22:55;;;;;;;;;;;;;;;17.05;97.22;99796.05;1683014;85;20120;-68
2022/06/27 01:25:24;;;;;;;;;;;;;;;17.07;97.20;99802.06;1682969;85;20137;-69
2022/06/27 01:27:52;;;;;;;;;;;;;;;17.08;96.96;99795.35;1660233;85;20434;-68
2022/06/27 01:30:22;;;;;;;;;;;;;;;17.08;96.83;99800.90;1689529;85;20097;-68
2022/06/27 01:32:55;;;;;;;;;;;;;;;17.10;96.66;99795.80;1688316;85;20538;-68
2022/06/27 01:35:26;;;;;;;;;;;;;;;17.10;96.58;99797.19;1684083;85;20120;-68
2022/06/27 01:37:58;;;;;;;;;;;;;;;17.09;96.58;99791.42;1660228;85;41564;-68
2022/06/27 01:40:26;;;;;;;;;;;;;;;17.11;96.59;99796.03;1689244;85;20112;-68
2022/06/27 01:42:56;;;;;;;;;;;;;;;17.16;96.56;99796.36;1659331;85;20096;-69
2022/06/27 01:45:24;;;;;;;;;;;;;;;17.19;96.33;99796.23;1688341;85;20092;-68
2022/06/27 01:47:52;;;;;;;;;;;;;;;17.20;96.17;99794.50;1688214;85;20099;-69
2022/06/27 01:50:27;;;;;;;;;;;;;;;17.19;96.20;99796.23;1682763;85;20112;-70
2022/06/27 01:52:55;;;;;;;;;;;;;;;17.19;96.23;99794.27;1689378;85;20084;-68
2022/06/27 01:55:26;;;;;;;;;;;;;;;17.20;96.11;99797.84;1651557;85;20134;-69
2022/06/27 01:57:58;;;;;;;;;;;;;;;17.16;96.20;99797.75;1646186;86;20187;-70
2022/06/27 02:00:26;;;;;;;;;;;;;;;17.18;96.30;99798.78;1645618;86;20119;-69
2022/06/27 02:03:03;;;;;;;;;;;;;;;17.17;96.37;99796.59;1626203;87;20470;-69
2022/06/27 02:05:40;;;;;;;;;;;;;;;17.20;96.39;99799.23;1628601;87;20128;-68
2022/06/27 02:08:11;;;;;;;;;;;;;;;17.21;96.36;99794.72;1625751;87;20107;-69
2022/06/27 02:10:39;;;;;;;;;;;;;;;17.22;96.37;99796.33;1645849;87;20437;-69
2022/06/27 02:13:13;;;;;;;;;;;;;;;17.22;96.49;99804.66;1646321;87;20150;-69
2022/06/27 02:15:59;;;;;;;;;;;;;;;17.23;96.57;99796.56;1626174;87;20193;-69
2022/06/27 02:18:28;;;;;;;;;;;;;;;17.24;96.62;99801.53;1638849;87;20094;-69
2022/06/27 02:21:06;;;;;;;;;;;;;;;17.28;96.61;99807.98;1646255;87;20127;-69
2022/06/27 02:23:34;;;;;;;;;;;;;;;17.30;96.52;99806.47;1627035;87;20106;-70
2022/06/27 02:26:03;;;;;;;;;;;;;;;17.34;96.46;99806.53;1646385;86;20466;-68
2022/06/27 02:28:32;;;;;;;;;;;;;;;17.32;96.51;99806.92;1646169;86;21191;-68
2022/06/27 02:31:03;;;;;;;;;;;;;;;17.33;96.63;99807.73;1646364;87;20111;-68
2022/06/27 02:33:34;;;;;;;;;;;;;;;17.35;96.72;99815.09;1646117;87;20104;-68
2022/06/27 02:36:15;;;;;;;;;;;;;;;17.37;96.69;99813.58;1645233;87;20123;-69
2022/06/27 02:38:48;;;;;;;;;;;;;;;17.42;96.61;99816.67;1646566;87;20103;-68
2022/06/27 02:41:19;;;;;;;;;;;;;;;17.46;96.47;99815.61;1642637;86;21140;-69
2022/06/27 02:43:47;;;;;;;;;;;;;;;17.51;96.43;99815.94;1645791;86;20114;-68
2022/06/27 02:46:13;;;;;;;;;;;;;;;17.54;96.40;99816.61;1644904;87;20154;-69
2022/06/27 02:48:46;;;;;;;;;;;;;;;17.59;96.40;99809.41;1644679;87;20207;-70
2022/06/27 02:51:18;;;;;;;;;;;;;;;17.63;96.23;99813.67;1627368;87;20103;-68
2022/06/27 02:54:03;;;;;;;;;;;;;;;17.64;96.15;99815.28;1643931;85;21216;-68
2022/06/27 02:56:31;;;;;;;;;;;;;;;17.64;96.43;99818.87;1674002;85;20435;-67
2022/06/27 02:59:17;;;;;;;;;;;;;;;17.65;96.57;99828.84;1688393;85;20431;-68
2022/06/27 03:01:48;;;;;;;;;;;;;;;17.68;96.71;99821.19;1688233;85;20119;-68
2022/06/27 03:04:23;;;;;;;;;;;;;;;17.75;96.68;99829.70;1688287;84;20108;-67
2022/06/27 03:06:51;;;;;;;;;;;;;;;17.83;96.50;99830.70;1692651;84;20112;-67
2022/06/27 03:09:24;;;;;;;;;;;;;;;17.91;96.67;99829.69;1663414;85;20100;-69
2022/06/27 03:11:59;;;;;;;;;;;;;;;18.00;96.45;99830.90;1671006;85;20486;-68
2022/06/27 03:14:25;;;;;;;;;;;;;;;18.08;96.33;99838.25;1687756;85;20100;-68
2022/06/27 03:16:54;;;;;;;;;;;;;;;18.16;96.01;99835.88;1687890;83;20418;-70
2022/06/27 03:19:33;;;;;;;;;;;;;;;18.24;95.73;99825.74;1687375;84;21785;-68
2022/06/27 03:22:05;;;;;;;;;;;;;;;18.32;95.39;99832.50;1688331;84;20088;-71
2022/06/27 03:24:50;;;;;;;;;;;;;;;18.41;95.07;99826.75;1653491;85;20110;-68
2022/06/27 03:27:10;;;;;;;;;;;;;;;18.49;94.80;99826.53;1677029;85;20128;-69
2022/06/27 03:29:38;;;;;;;;;;;;;;;18.60;94.60;99828.75;1690102;84;20112;-68
2022/06/27 03:32:09;;;;;;;;;;;;;;;18.68;94.31;99836.12;1686047;84;21325;-68
2022/06/27 03:34:35;;;;;;;;;;;;;;;18.76;93.99;99831.74;1684640;85;20460;-68
2022/06/27 03:37:07;;;;;;;;;;;;;;;18.84;93.58;99838.86;1683075;84;20465;-68
2022/06/27 03:39:38;;;;;;;;;;;;;;;18.93;93.14;99838.06;1686333;84;20875;-68
2022/06/27 03:42:06;;;;;;;;;;;;;;;19.01;92.20;99844.00;1687679;85;20117;-68
2022/06/27 03:44:34;;;;;;;;;;;;;;;19.10;91.57;99845.95;1679346;84;20607;-68
2022/06/27 03:47:05;;;;;;;;;;;;;;;19.18;91.27;99846.33;1665825;85;20116;-69
2022/06/27 03:52:29;;;;;;;;;;;;;;;19.34;90.57;99847.06;1678295;85;20072;-68
2022/06/27 03:55:02;;;;;;;;;;;;;;;19.46;90.23;99846.09;1679961;85;20158;-69
2022/06/27 03:57:30;;;;;;;;;;;;;;;19.56;89.52;99853.89;1672037;84;20157;-69
2022/06/27 04:00:02;;;;;;;;;;;;;;;19.66;89.28;99846.88;1649657;86;20109;-69
2022/06/27 04:02:39;;;;;;;;;;;;;;;19.73;88.75;99850.61;1645154;86;20092;-69
2022/06/27 04:05:07;;;;;;;;;;;;;;;19.81;88.00;99845.17;1640237;87;20160;-69
2022/06/27 04:07:50;;;;;;;;;;;;;;;19.90;87.62;99847.13;1608686;89;20168;-68
2022/06/27 04:10:07;;;;;;;;;;;;;;;19.98;87.15;99847.47;1624617;88;21164;-68
2022/06/27 04:12:37;;;;;;;;;;;;;;;20.08;86.56;99848.24;1625532;88;20116;-68
2022/06/27 04:15:28;;;;;;;;;;;;;;;20.17;85.82;99851.59;1628633;87;20153;-70
2022/06/27 04:18:18;;;;;;;;;;;;;;;20.27;85.91;99843.95;1637577;86;20149;-70
2022/06/27 04:21:06;;;;;;;;;;;;;;;20.42;85.51;99854.20;1660847;86;20158;-70
2022/06/27 04:23:43;;;;;;;;;;;;;;;20.55;85.29;99845.62;1660160;86;21722;-68
2022/06/27 04:26:35;;;;;;;;;;;;;;;20.64;84.42;99844.77;1659900;86;20481;-69
2022/06/27 04:28:49;;;;;;;;;;;;;;;20.75;83.67;99844.33;1657924;85;20505;-68
2022/06/27 04:31:21;;;;;;;;;;;;;;;20.85;83.58;99846.44;1660723;86;20177;-68
2022/06/27 04:33:53;;;;;;;;;;;;;;;20.94;83.17;99844.77;1633435;87;20180;-69
2022/06/27 04:36:21;;;;;;;;;;;;;;;21.03;82.54;99843.30;1633394;88;21184;-69
2022/06/27 04:38:55;;;;;;;;;;;;;;;21.14;82.80;99843.44;1633768;88;20124;-68
2022/06/27 04:41:33;;;;;;;;;;;;;;;21.26;81.90;99839.63;1634036;86;20148;-70
2022/06/27 04:44:05;;;;;;;;;;;;;;;21.40;81.83;99839.77;1612102;88;20136;-69
2022/06/27 04:46:33;;;;;;;;;;;;;;;21.53;81.56;99841.13;1608938;89;20122;-69
2022/06/27 04:49:06;;;;;;;;;;;;;;;21.68;81.13;99840.69;1643718;87;21238;-68
2022/06/27 04:51:37;;;;;;;;;;;;;;;21.81;80.12;99835.03;1642738;87;20140;-68
2022/06/27 04:54:10;;;;;;;;;;;;;;;21.96;80.10;99838.15;1586867;87;20141;-70
2022/06/27 04:56:44;;;;;;;;;;;;;;;22.10;79.13;99828.31;1646626;86;20155;-68
2022/06/27 04:59:13;;;;;;;;;;;;;;;22.22;78.92;99826.63;1649111;87;20119;-68
2022/06/27 05:01:45;;;;;;;;;;;;;;;22.35;78.48;99827.33;1590150;88;20163;-69
2022/06/27 05:04:23;;;;;;;;;;;;;;;22.51;77.75;99830.44;1627667;86;20168;-69
2022/06/27 05:06:56;;;;;;;;;;;;;;;22.64;76.68;99828.90;1626896;87;20131;-68
2022/06/27 05:09:28;;;;;;;;;;;;;;;22.75;76.18;99828.38;1616731;87;20159;-69
2022/06/27 05:11:55;;;;;;;;;;;;;;;22.86;74.79;99827.87;1671892;85;20105;-68
2022/06/27 05:14:24;;;;;;;;;;;;;;;22.97;75.16;99831.53;1673718;86;21076;-68
2022/06/27 05:16:52;;;;;;;;;;;;;;;23.09;74.39;99832.39;1671521;84;20176;-67
2022/06/27 05:19:20;;;;;;;;;;;;;;;23.17;72.91;99833.99;1670919;86;20172;-72
2022/06/27 05:21:49;;;;;;;;;;;;;;;23.28;72.75;99838.44;1673269;86;20390;-74
2022/06/27 05:24:17;;;;;;;;;;;;;;;23.42;72.91;99836.89;1673812;85;20511;-68
2022/06/27 05:26:46;;;;;;;;;;;;;;;23.52;71.45;99834.13;1673635;85;21130;-67
2022/06/27 05:29:13;;;;;;;;;;;;;;;23.61;70.45;99839.39;1673501;86;20188;-68
2022/06/27 05:31:40;;;;;;;;;;;;;;;23.70;69.60;99841.98;1673230;86;20549;-68
2022/06/27 05:34:07;;;;;;;;;;;;;;;23.79;69.30;99840.20;1672141;84;20173;-68
2022/06/27 05:36:33;;;;;;;;;;;;;;;23.89;68.39;99836.61;1673586;86;20188;-68
2022/06/27 05:39:01;;;;;;;;;;;;;;;23.99;68.94;99841.44;1673683;86;21142;-68
2022/06/27 05:41:28;;;;;;;;;;;;;;;24.12;68.76;99835.44;1673572;85;20177;-69
2022/06/27 05:43:57;;;;;;;;;;;;;;;24.28;68.98;99835.23;1672555;85;20153;-68
2022/06/27 05:46:23;;;;;;;;;;;;;;;24.41;67.81;99834.84;1673706;85;20484;-68
2022/06/27 05:49:00;;;;;;;;;;;;;;;24.55;68.43;99832.02;1644232;86;20183;-69
2022/06/27 05:51:32;;;;;;;;;;;;;;;24.68;67.42;99833.20;1673702;85;20499;-68
2022/06/27 05:54:02;;;;;;;;;;;;;;;24.80;67.26;99829.16;1644930;86;20119;-69
2022/06/27 05:56:30;;;;;;;;;;;;;;;24.90;64.66;99830.52;1687308;84;20543;-74
2022/06/27 05:59:03;;;;;;;;;;;;;;;25.00;65.86;99837.33;1689075;85;20148;-72
2022/06/27 06:01:31;;;;;;;;;;;;;;;25.12;65.72;99831.88;1682959;85;20176;-72
2022/06/27 06:04:03;;;;;;;;;;;;;;;25.25;64.50;99831.63;1688845;85;21827;-72
2022/06/27 06:06:30;;;;;;;;;;;;;;;25.36;64.01;99838.00;1688329;85;20120;-68
2022/06/27 06:08:58;;;;;;;;;;;;;;;25.46;62.94;99837.12;1688642;85;20203;-68
2022/06/27 06:11:30;;;;;;;;;;;;;;;25.56;62.12;99834.06;1658102;85;20124;-67
2022/06/27 06:13:59;;;;;;;;;;;;;;;25.65;62.18;99838.66;1689072;85;20120;-67
2022/06/27 06:16:29;;;;;;;;;;;;;;;25.76;61.24;99837.99;1688622;83;21595;-68
2022/06/27 06:19:02;;;;;;;;;;;;;;;25.85;61.33;99833.31;1688484;85;20160;-69
2022/06/27 06:21:32;;;;;;;;;;;;;;;25.96;61.92;99832.64;1689440;85;20281;-67
2022/06/27 06:24:02;;;;;;;;;;;;;;;26.06;61.30;99831.73;1684543;85;20123;-67
2022/06/27 06:26:28;;;;;;;;;;;;;;;26.15;59.98;99830.66;1688886;85;20423;-67
2022/06/27 06:29:22;;;;;;;;;;;;;;;26.20;60.26;99833.63;1660390;85;20124;-67
2022/06/27 06:31:36;;;;;;;;;;;;;;;26.25;60.84;99827.56;1650636;84;20182;-68
2022/06/27 06:34:11;;;;;;;;;;;;;;;26.35;61.27;99824.49;1680696;83;20123;-70
2022/06/27 06:36:44;;;;;;;;;;;;;;;26.47;60.47;99823.98;1677763;85;20084;-68
2022/06/27 06:39:16;;;;;;;;;;;;;;;26.56;60.34;99827.91;1681137;85;20448;-68
2022/06/27 06:41:40;;;;;;;;;;;;;;;26.67;58.60;99823.55;1669475;83;21259;-68
2022/06/27 06:44:09;;;;;;;;;;;;;;;26.78;57.19;99819.22;1662891;85;20086;-68
2022/06/27 06:46:58;;;;;;;;;;;;;;;26.89;57.72;99822.72;1683371;84;20116;-68
2022/06/27 06:49:30;;;;;;;;;;;;;;;27.04;58.17;99825.59;1679185;84;21131;-69
2022/06/27 06:52:03;;;;;;;;;;;;;;;27.17;55.87;99828.63;1686086;84;20084;-67
2022/06/27 06:54:42;;;;;;;;;;;;;;;27.25;56.91;99830.95;1682548;85;20084;-67
2022/06/27 06:57:09;;;;;;;;;;;;;;;27.38;55.12;99826.16;1686692;84;20084;-68
2022/06/27 06:59:44;;;;;;;;;;;;;;;27.46;54.82;99828.46;1667373;85;20135;-68
2022/06/27 07:02:13;;;;;;;;;;;;;;;27.55;55.56;99834.99;1666518;85;20072;-67
2022/06/27 07:04:43;;;;;;;;;;;;;;;27.63;56.26;99836.52;1687063;85;20076;-67
2022/06/27 07:07:10;;;;;;;;;;;;;;;27.70;54.17;99835.63;1657641;86;21158;-68
2022/06/27 07:09:48;;;;;;;;;;;;;;;27.75;54.38;99830.88;1687431;85;20120;-68
2022/06/27 07:12:21;;;;;;;;;;;;;;;27.82;54.00;99831.58;1686694;85;20092;-67
2022/06/27 07:14:48;;;;;;;;;;;;;;;27.89;53.06;99831.47;1666783;85;20427;-67
2022/06/27 07:17:25;;;;;;;;;;;;;;;28.00;53.59;99834.13;1686579;83;20084;-68
2022/06/27 07:19:56;;;;;;;;;;;;;;;28.13;52.05;99833.72;1688877;85;20088;-67
2022/06/27 07:22:30;;;;;;;;;;;;;;;28.29;51.52;99830.88;1687537;85;20147;-67
2022/06/27 07:25:03;;;;;;;;;;;;;;;28.42;51.14;99831.22;1689768;85;20434;-68
2022/06/27 07:27:34;;;;;;;;;;;;;;;28.58;50.96;99826.31;1689462;85;20084;-68
2022/06/27 07:30:02;;;;;;;;;;;;;;;28.72;51.69;99837.34;1687425;85;20096;-68
2022/06/27 07:32:31;;;;;;;;;;;;;;;28.88;50.61;99828.97;1687564;85;21317;-68
2022/06/27 07:35:03;;;;;;;;;;;;;;;29.05;49.62;99831.27;1687649;85;20112;-68
2022/06/27 07:37:44;;;;;;;;;;;;;;;29.17;48.62;99834.85;1686998;85;20088;-67
2022/06/27 07:40:15;;;;;;;;;;;;;;;29.26;47.86;99827.20;1690206;85;20435;-69
2022/06/27 07:42:45;;;;;;;;;;;;;;;29.31;45.83;99830.14;1662986;85;20166;-68
2022/06/27 07:45:21;;;;;;;;;;;;;;;29.24;47.53;99834.70;1668572;85;21267;-68
2022/06/27 07:47:47;;;;;;;;;;;;;;;29.19;47.29;99838.05;1652354;86;20419;-68
2022/06/27 07:53:13;;;;;;;;;;;;;;;29.32;46.84;99831.73;1604016;88;20196;-74
2022/06/27 07:55:44;;;;;;;;;;;;;;;29.40;46.14;99838.83;1572698;91;20097;-73
2022/06/27 07:58:16;;;;;;;;;;;;;;;29.46;44.66;99839.30;1607644;87;21054;-72
2022/06/27 08:00:54;;;;;;;;;;;;;;;29.41;43.87;99832.77;1637838;87;20128;-74
2022/06/27 08:06:27;;;;;;;;;;;;;;;29.61;45.05;99834.74;1638537;87;20104;-70
2022/06/27 08:09:00;;;;;;;;;;;;;;;29.78;44.92;99836.38;1616813;87;20124;-68
2022/06/27 08:11:29;;;;;;;;;;;;;;;29.93;44.61;99834.80;1639138;87;21824;-70
2022/06/27 08:14:03;;;;;;;;;;;;;;;30.12;45.05;99832.52;1636021;86;20127;-70
2022/06/27 08:16:31;;;;;;;;;;;;;;;30.31;44.13;99836.52;1675707;84;20116;-69
2022/06/27 08:18:58;;;;;;;;;;;;;;;30.42;42.73;99829.95;1674973;85;20124;-69
2022/06/27 08:21:34;;;;;;;;;;;;;;;30.43;43.89;99832.97;1679214;85;20411;-69
2022/06/27 08:24:03;;;;;;;;;;;;;;;30.42;41.50;99831.99;1677473;84;21270;-69
2022/06/27 08:26:29;;;;;;;;;;;;;;;30.24;42.56;99832.44;1658574;85;20130;-68
2022/06/27 08:29:02;;;;;;;;;;;;;;;30.08;41.15;99831.02;1676476;85;20124;-68
2022/06/27 08:31:31;;;;;;;;;;;;;;;30.12;41.01;99830.31;1658405;85;20113;-68
2022/06/27 08:34:03;;;;;;;;;;;;;;;30.30;41.73;99828.45;1657397;85;20447;-69
2022/06/27 08:36:40;;;;;;;;;;;;;;;30.58;41.07;99829.17;1677966;85;21040;-71
2022/06/27 08:39:11;;;;;;;;;;;;;;;30.80;40.79;99821.66;1676524;85;20113;-72
2022/06/27 08:41:39;;;;;;;;;;;;;;;31.08;40.98;99824.94;1676767;85;20108;-72
2022/06/27 08:44:08;;;;;;;;;;;;;;;31.36;41.89;99821.28;1676606;85;20145;-72
2022/06/27 08:46:41;;;;;;;;;;;;;;;31.50;40.17;99818.64;1676812;85;20475;-74
2022/06/27 08:49:12;;;;;;;;;;;;;;;31.50;41.63;99815.17;1675432;85;21214;-72
2022/06/27 08:51:37;;;;;;;;;;;;;;;31.59;39.95;99811.67;1676866;85;20144;-75
2022/06/27 08:54:04;;;;;;;;;;;;;;;31.88;40.49;99817.87;1676745;85;20128;-73
2022/06/27 08:56:31;;;;;;;;;;;;;;;32.08;40.22;99822.06;1676709;85;20204;-74
2022/06/27 08:58:59;;;;;;;;;;;;;;;32.18;39.87;99820.92;1676725;85;20192;-72
2022/06/27 09:01:27;;;;;;;;;;;;;;;32.23;38.67;99821.62;1676827;85;21471;-72
2022/06/27 09:04:00;;;;;;;;;;;;;;;31.93;38.42;99820.14;1676832;85;20131;-72
2022/06/27 09:06:29;;;;;;;;;;;;;;;31.56;39.62;99823.92;1677014;85;20220;-73
2022/06/27 09:09:11;;;;;;;;;;;;;;;31.36;40.48;99820.48;1678485;85;20144;-73
2022/06/27 09:11:36;;;;;;;;;;;;;;;31.26;38.92;99825.84;1666026;85;20173;-68
2022/06/27 09:14:03;;;;;;;;;;;;;;;30.98;38.86;99821.17;1677798;85;21126;-74
2022/06/27 09:16:30;;;;;;;;;;;;;;;30.75;40.57;99822.20;1678010;84;20144;-71
2022/06/27 09:18:56;;;;;;;;;;;;;;;30.80;40.75;99820.86;1676874;85;20208;-73
2022/06/27 09:21:24;;;;;;;;;;;;;;;31.02;40.56;99818.23;1677509;85;20323;-73
2022/06/27 09:24:00;;;;;;;;;;;;;;;31.29;38.53;99814.40;1677846;85;20200;-72
2022/06/27 09:26:31;;;;;;;;;;;;;;;31.63;39.02;99817.23;1677785;85;20769;-73
2022/06/27 09:28:59;;;;;;;;;;;;;;;31.78;38.08;99815.55;1678003;85;20128;-70
2022/06/27 09:31:28;;;;;;;;;;;;;;;31.72;38.19;99815.34;1678561;85;20108;-69
2022/06/27 09:34:10;;;;;;;;;;;;;;;31.74;38.56;99810.01;1677917;85;21283;-71
2022/06/27 09:36:39;;;;;;;;;;;;;;;31.86;38.08;99804.13;1678433;85;20204;-71
2022/06/27 09:39:07;;;;;;;;;;;;;;;31.80;37.84;99803.11;1677930;85;21209;-71
2022/06/27 09:41:33;;;;;;;;;;;;;;;31.70;37.01;99802.23;1678234;85;20164;-67
2022/06/27 09:44:03;;;;;;;;;;;;;;;31.77;38.90;99804.81;1678101;85;20183;-69
2022/06/27 09:46:34;;;;;;;;;;;;;;;32.02;37.06;99790.44;1677972;85;20139;-70
2022/06/27 09:49:00;;;;;;;;;;;;;;;32.37;38.27;99789.23;1677588;85;20165;-71
2022/06/27 09:51:27;;;;;;;;;;;;;;;32.61;36.89;99790.25;1677796;85;21140;-70
2022/06/27 09:53:56;;;;;;;;;;;;;;;32.73;36.88;99787.98;1678057;85;20184;-70
2022/06/27 09:56:22;;;;;;;;;;;;;;;33.02;37.31;99793.42;1678046;85;20588;-72
2022/06/27 09:58:49;;;;;;;;;;;;;;;33.29;37.19;99786.52;1681325;85;20195;-73
2022/06/27 10:01:16;;;;;;;;;;;;;;;33.32;36.35;99780.53;1658784;85;20171;-73
2022/06/27 10:03:42;;;;;;;;;;;;;;;33.07;35.33;99784.30;1678093;85;21119;-74
2022/06/27 10:06:10;;;;;;;;;;;;;;;32.87;36.21;99786.70;1677689;85;20154;-73
2022/06/27 10:08:40;;;;;;;;;;;;;;;32.93;37.58;99791.30;1677874;85;20982;-73
2022/06/27 10:11:07;;;;;;;;;;;;;;;33.08;35.76;99783.04;1636512;85;20393;-70
2022/06/27 10:13:34;;;;;;;;;;;;;;;33.28;35.36;99787.78;1676434;85;20224;-72
2022/06/27 10:16:09;;;;;;;;;;;;;;;33.53;33.44;99785.99;1676871;84;21218;-70
2022/06/27 10:19:05;;;;;;;;;;;;;;;33.68;35.95;99784.96;1674477;85;20125;-73
2022/06/27 10:21:35;;;;;;;;;;;;;;;33.87;35.62;99777.31;1678184;85;20141;-68
2022/06/27 10:24:29;;;;;;;;;;;;;;;33.79;35.88;99782.50;1677064;85;20140;-69
2022/06/27 10:26:54;;;;;;;;;;;;;;;33.72;34.90;99788.45;1677855;85;20681;-68
2022/06/27 10:29:39;;;;;;;;;;;;;;;33.51;36.55;99780.77;1682424;85;21871;-67
2022/06/27 10:32:07;;;;;;;;;;;;;;;33.41;36.11;99779.95;1678471;85;20101;-68
2022/06/27 10:34:46;;;;;;;;;;;;;;;33.31;36.00;99776.90;1679005;85;20189;-68
2022/06/27 10:37:30;;;;;;;;;;;;;;;33.37;35.04;99769.34;1678897;85;20415;-68
2022/06/27 10:40:21;;;;;;;;;;;;;;;33.20;36.29;99775.06;1679241;85;21248;-67
2022/06/27 10:42:54;;;;;;;;;;;;;;;33.03;36.40;99764.52;1678935;85;21159;-67
2022/06/27 10:45:23;;;;;;;;;;;;;;;33.13;36.48;99768.22;1679044;85;20137;-68
2022/06/27 10:47:57;;;;;;;;;;;;;;;33.33;36.08;99764.42;1678428;85;20423;-68
2022/06/27 10:50:26;;;;;;;;;;;;;;;33.46;34.42;99770.02;1679048;85;20385;-67
2022/06/27 10:53:24;;;;;;;;;;;;;;;33.42;35.05;99770.16;1678951;85;20165;-68
2022/06/27 10:55:50;;;;;;;;;;;;;;;33.33;34.09;99757.31;1677238;85;21781;-68
2022/06/27 10:58:25;;;;;;;;;;;;;;;33.32;35.47;99766.31;1657824;85;20136;-75
2022/06/27 11:00:51;;;;;;;;;;;;;;;33.41;35.87;99764.30;1676713;85;20347;-74
2022/06/27 11:03:23;;;;;;;;;;;;;;;33.58;35.95;99756.92;1679009;85;20428;-74
2022/06/27 11:05:59;;;;;;;;;;;;;;;33.83;36.44;99753.89;1678954;85;20463;-76
2022/06/27 11:08:28;;;;;;;;;;;;;;;34.07;34.03;99752.06;1653394;85;20614;-78
2022/06/27 11:10:54;;;;;;;;;;;;;;;34.20;35.10;99749.67;1677803;85;20164;-68
2022/06/27 11:13:41;;;;;;;;;;;;;;;34.21;33.43;99749.20;1675964;85;20979;-72
2022/06/27 11:16:16;;;;;;;;;;;;;;;33.97;34.17;99741.11;1679991;84;20208;-75
2022/06/27 11:18:52;;;;;;;;;;;;;;;33.52;34.50;99748.83;1677836;85;20180;-75
2022/06/27 11:21:21;;;;;;;;;;;;;;;32.98;34.43;99750.91;1677955;85;21352;-67
2022/06/27 11:24:03;;;;;;;;;;;;;;;32.74;35.46;99751.99;1677756;85;20173;-73
2022/06/27 11:26:32;;;;;;;;;;;;;;;32.88;35.05;99759.23;1677848;85;20164;-72
2022/06/27 11:32:13;;;;;;;;;;;;;;;33.22;33.71;99742.67;1677654;85;20207;-68
2022/06/27 11:34:42;;;;;;;;;;;;;;;33.30;31.99;99746.86;1677904;85;21194;-72
2022/06/27 11:37:13;;;;;;;;;;;;;;;33.51;33.25;99758.66;1676649;84;20180;-73
2022/06/27 11:39:40;;;;;;;;;;;;;;;33.60;33.71;99746.66;1658291;86;20531;-73
2022/06/27 11:42:10;;;;;;;;;;;;;;;33.71;33.46;99750.49;1659087;86;20483;-71
2022/06/27 11:44:59;;;;;;;;;;;;;;;33.92;33.54;99747.43;1677995;85;20463;-70
2022/06/27 11:47:26;;;;;;;;;;;;;;;33.89;32.79;99749.16;1677875;84;21133;-69
2022/06/27 11:50:02;;;;;;;;;;;;;;;33.61;33.42;99752.52;1678088;85;20152;-71
2022/06/27 11:52:42;;;;;;;;;;;;;;;33.55;34.08;99750.74;1677867;85;20151;-76
2022/06/27 11:55:13;;;;;;;;;;;;;;;33.67;33.99;99749.84;1678042;85;20180;-75
2022/06/27 11:57:45;;;;;;;;;;;;;;;33.78;33.35;99743.09;1677008;84;20184;-73
2022/06/27 12:00:17;;;;;;;;;;;;;;;33.73;31.80;99739.43;1643902;87;21164;-73
2022/06/27 12:02:44;;;;;;;;;;;;;;;33.70;34.70;99738.95;1658650;86;21043;-76
2022/06/27 12:05:13;;;;;;;;;;;;;;;33.84;33.53;99732.70;1659293;86;20219;-76
2022/06/27 12:08:01;;;;;;;;;;;;;;;33.86;33.03;99736.50;1657346;86;21054;-77
2022/06/27 12:10:40;;;;;;;;;;;;;;;33.82;31.79;99737.27;1639105;87;20213;-76
2022/06/27 12:13:08;;;;;;;;;;;;;;;33.83;31.87;99736.02;1658999;85;21546;-72
2022/06/27 12:15:35;;;;;;;;;;;;;;;33.98;34.02;99736.38;1658917;85;20205;-71
2022/06/27 12:18:02;;;;;;;;;;;;;;;34.16;31.40;99735.59;1647727;86;20503;-71
2022/06/27 12:20:31;;;;;;;;;;;;;;;34.23;30.05;99731.00;1659218;86;20213;-71
2022/06/27 12:22:57;;;;;;;;;;;;;;;34.21;29.90;99725.63;1658838;86;20209;-71
2022/06/27 12:25:24;;;;;;;;;;;;;;;34.10;29.46;99726.08;1659431;86;21475;-71
2022/06/27 12:27:50;;;;;;;;;;;;;;;34.05;30.44;99724.67;1659150;86;20152;-71
2022/06/27 12:30:17;;;;;;;;;;;;;;;34.07;29.96;99720.73;1659305;86;20255;-72
2022/06/27 12:32:44;;;;;;;;;;;;;;;34.02;30.45;99734.17;1659241;86;20207;-71
2022/06/27 12:35:10;;;;;;;;;;;;;;;33.99;30.90;99727.20;1659116;86;20201;-71
2022/06/27 12:37:37;;;;;;;;;;;;;;;33.92;29.41;99724.02;1659369;86;21320;-70
2022/06/27 12:40:05;;;;;;;;;;;;;;;33.60;28.80;99710.29;1645403;87;20222;-71
2022/06/27 12:42:33;;;;;;;;;;;;;;;33.24;29.65;99723.09;1655043;86;20144;-73
2022/06/27 12:45:00;;;;;;;;;;;;;;;33.02;30.44;99722.33;1655148;86;20217;-71
2022/06/27 12:47:26;;;;;;;;;;;;;;;32.83;31.10;99730.61;1655483;86;20194;-70
2022/06/27 12:49:52;;;;;;;;;;;;;;;32.67;30.44;99723.04;1655160;86;21552;-70
2022/06/27 12:52:19;;;;;;;;;;;;;;;32.47;30.36;99731.25;1655175;86;20577;-71
2022/06/27 12:54:45;;;;;;;;;;;;;;;32.32;31.45;99728.78;1655208;86;20177;-71
2022/06/27 12:57:13;;;;;;;;;;;;;;;32.28;31.93;99741.52;1655304;85;20535;-71
2022/06/27 12:59:42;;;;;;;;;;;;;;;32.27;31.54;99732.20;1672867;85;20180;-70
2022/06/27 13:02:09;;;;;;;;;;;;;;;32.29;31.23;99731.74;1683116;85;21183;-71
2022/06/27 13:04:35;;;;;;;;;;;;;;;32.23;31.02;99740.05;1683164;85;20530;-70
2022/06/27 13:07:02;;;;;;;;;;;;;;;32.14;30.74;99735.67;1683366;85;20201;-70
2022/06/27 13:09:28;;;;;;;;;;;;;;;32.05;32.32;99734.16;1683215;85;20188;-71
2022/06/27 13:11:55;;;;;;;;;;;;;;;32.03;31.83;99736.03;1683403;85;20311;-71
2022/06/27 13:14:21;;;;;;;;;;;;;;;32.07;31.71;99737.34;1683318;85;21184;-70
2022/06/27 13:16:50;;;;;;;;;;;;;;;32.14;32.68;99738.52;1683298;84;20176;-70
2022/06/27 13:19:16;;;;;;;;;;;;;;;32.16;33.11;99733.17;1683305;85;20200;-71